Airfield :
LOGIN :

Register | Disclaimer

   EN    FR    IT 

 










Legend :    VFR   Marginal VFR   IFR   Intensive IFR   Very Intensive IFR
Visi :
Ceiling :
>= 8 km
>= 3000ft
5 to 8 km
1000 to 3000 ft
1500m to 5 km
500 to 1000 ft
800 to 1500m
200 to 500 ft
< 800m
< 200 ft
Symbols :   Thunderstorms  Fog  Heavy snow  Heavy precipitations  Wind > 20 kt
SIGMETs :     Misc.  Thunderstorms  Icing  Turbulence  Mountain Waves  Volcanic Ashes






- Airport Elevation : 2945 ft
- IATA code : RGS


LEBG - Burgos

CURRENT METAR :
  • 150400Z AUTO 05008KT CAVOK 01/M01 Q1019

EXPIRED METARs :
  • 150330Z AUTO 05008KT 9999 FEW065 01/M01 Q1018
  • 150300Z AUTO 05006KT 9999 BKN060 02/M01 Q1018
  • 150230Z AUTO 03007KT 010V070 9999 BKN058 02/M00 Q1018
  • 150200Z AUTO 03008KT 360V060 9999 BKN055 03/M00 Q1018

Expired Forecast.



MET'MAP, your aeronautical weather chart ! - Copyright ORBIFLY December 2007 - Disclaimer

ORBIFLY MET'MAP TEAM :

Programming & Development : Alexandra Zaïnal
Concept & original design : Baudouin d'Aumeries
Assistance for programming : Marc-Olivier Méhu
Technical & hardware support : Manuel Goepfert

Contact : metmap@orbifly.com




SOURCES & CREDITS :

   NOAA